createdAt,value
2018-03-31T00:01:21.960Z,10.27
2018-03-31T00:04:24.766Z,9.77
2018-03-31T00:07:28.270Z,9.88
2018-03-31T00:10:31.288Z,10.68
2018-03-31T00:13:34.018Z,10.20
2018-03-31T00:16:37.202Z,10.05
2018-03-31T00:19:39.978Z,10.38
2018-03-31T00:22:42.839Z,11.23
2018-03-31T00:25:45.579Z,10.85
2018-03-31T00:28:49.129Z,11.02
2018-03-31T00:31:51.910Z,10.55
2018-03-31T00:34:54.721Z,11.95
2018-03-31T00:37:57.449Z,13.70
2018-03-31T00:41:00.198Z,9.20
2018-03-31T00:44:02.918Z,9.48
2018-03-31T00:47:06.456Z,10.18
2018-03-31T00:50:09.282Z,9.93
2018-03-31T00:53:12.414Z,8.88
2018-03-31T00:56:15.143Z,9.52
2018-03-31T00:59:18.312Z,11.27
2018-03-31T01:02:21.112Z,11.60
2018-03-31T01:05:23.993Z,10.40
2018-03-31T01:08:26.739Z,11.02
2018-03-31T01:11:30.436Z,10.00
2018-03-31T01:14:33.471Z,11.52
2018-03-31T01:17:36.661Z,11.30
2018-03-31T01:20:39.403Z,12.93
2018-03-31T01:23:42.916Z,12.10
2018-03-31T01:26:45.694Z,12.48
2018-03-31T01:29:49.308Z,11.82
2018-03-31T01:32:52.999Z,13.82
2018-03-31T01:35:56.075Z,13.50
2018-03-31T01:38:58.950Z,13.90
2018-03-31T01:42:02.072Z,12.30
2018-03-31T01:45:06.098Z,13.15
2018-03-31T01:48:09.308Z,13.70
2018-03-31T01:51:12.275Z,14.30
2018-03-31T01:54:15.165Z,13.18
2018-03-31T01:57:17.991Z,15.13
2018-03-31T02:00:20.804Z,15.88
2018-03-31T02:03:23.543Z,15.25
2018-03-31T02:06:26.313Z,15.00
2018-03-31T02:09:29.055Z,15.50
2018-03-31T02:12:31.853Z,14.85
2018-03-31T02:15:34.875Z,14.90
2018-03-31T02:18:38.782Z,14.63
2018-03-31T02:21:41.610Z,14.48
2018-03-31T02:24:44.408Z,14.68
2018-03-31T02:27:47.155Z,14.98
2018-03-31T02:30:49.963Z,14.98
2018-03-31T02:33:52.720Z,14.20
2018-03-31T02:36:55.888Z,15.15
2018-03-31T02:39:58.658Z,14.30
2018-03-31T02:43:01.406Z,14.38
2018-03-31T02:46:04.122Z,14.68
2018-03-31T02:49:07.661Z,15.60
2018-03-31T02:52:10.437Z,14.07
2018-03-31T02:55:13.924Z,15.77
2018-03-31T02:58:17.412Z,14.52
2018-03-31T03:01:20.175Z,15.60
2018-03-31T03:04:22.903Z,15.40
2018-03-31T03:07:25.680Z,14.65
2018-03-31T03:10:28.909Z,15.32
2018-03-31T03:13:31.662Z,16.02
2018-03-31T03:16:35.169Z,14.93
2018-03-31T03:19:43.333Z,15.13
2018-03-31T03:22:46.622Z,14.87
2018-03-31T03:25:50.199Z,16.45
2018-03-31T03:28:52.925Z,14.50
2018-03-31T03:31:55.962Z,15.30
2018-03-31T03:34:59.333Z,16.17
2018-03-31T03:38:02.183Z,15.98
2018-03-31T03:41:05.777Z,13.98
2018-03-31T03:44:08.520Z,14.45
2018-03-31T03:47:11.862Z,15.25
2018-03-31T03:50:14.724Z,15.90
2018-03-31T03:53:17.857Z,16.85
2018-03-31T03:56:20.840Z,16.52
2018-03-31T03:59:23.696Z,15.82
2018-03-31T04:02:26.647Z,14.52
2018-03-31T04:05:30.439Z,15.23
2018-03-31T04:08:33.315Z,15.82
2018-03-31T04:11:36.983Z,16.77
2018-03-31T04:14:39.931Z,18.27
2018-03-31T04:17:43.530Z,16.58
2018-03-31T04:20:46.452Z,15.80
2018-03-31T04:23:49.321Z,17.67
2018-03-31T04:26:52.850Z,17.87
2018-03-31T04:29:55.952Z,17.62
2018-03-31T04:32:58.802Z,17.60
2018-03-31T04:36:01.583Z,17.17
2018-03-31T04:39:04.416Z,17.52
2018-03-31T04:42:07.207Z,17.85
2018-03-31T04:45:10.603Z,18.05
2018-03-31T04:48:13.523Z,17.23
2018-03-31T04:51:17.131Z,16.70
2018-03-31T04:54:20.639Z,18.67
2018-03-31T04:57:23.440Z,18.73
2018-03-31T05:00:26.680Z,19.10
2018-03-31T05:03:29.478Z,17.45
2018-03-31T05:06:32.509Z,18.27
2018-03-31T05:09:35.409Z,18.10
2018-03-31T05:12:38.140Z,17.85
2018-03-31T05:15:40.928Z,18.30
2018-03-31T05:18:43.626Z,18.15
2018-03-31T05:21:46.455Z,18.70
2018-03-31T05:24:49.304Z,17.50
2018-03-31T05:27:52.408Z,17.90
2018-03-31T05:30:55.410Z,18.55
2018-03-31T05:33:58.339Z,17.95
2018-03-31T05:37:01.545Z,16.92
2018-03-31T05:40:04.333Z,18.08
2018-03-31T05:43:07.075Z,18.12
2018-03-31T05:46:10.173Z,36.60
2018-03-31T05:49:13.110Z,18.83
2018-03-31T05:52:15.930Z,17.35
2018-03-31T05:55:18.766Z,17.90
2018-03-31T05:58:22.471Z,19.12
2018-03-31T06:01:25.247Z,18.12
2018-03-31T06:04:28.768Z,19.35
2018-03-31T06:07:33.628Z,18.25
2018-03-31T06:10:38.110Z,19.73
2018-03-31T06:13:41.547Z,18.83
2018-03-31T06:16:44.422Z,20.00
2018-03-31T06:19:47.407Z,19.60
2018-03-31T06:22:50.355Z,15.73
2018-03-31T06:25:53.277Z,17.48
2018-03-31T06:28:56.881Z,16.05
2018-03-31T06:32:00.455Z,16.15
2018-03-31T06:35:03.439Z,15.15
2018-03-31T06:38:06.249Z,16.48
2018-03-31T06:41:09.095Z,15.75
2018-03-31T06:44:12.724Z,15.48
2018-03-31T06:47:15.540Z,14.55
2018-03-31T06:50:18.360Z,16.52
2018-03-31T06:53:22.163Z,15.82
2018-03-31T06:56:25.684Z,14.70
2018-03-31T06:59:28.743Z,17.05
2018-03-31T07:02:31.530Z,17.08
2018-03-31T07:05:34.342Z,16.17
2018-03-31T07:08:37.220Z,17.62
2018-03-31T07:11:40.778Z,16.95
2018-03-31T07:14:44.388Z,15.50
2018-03-31T07:17:47.290Z,17.08
2018-03-31T07:20:50.129Z,15.55
2018-03-31T07:23:53.274Z,15.88
2018-03-31T07:26:56.168Z,14.75
2018-03-31T07:29:59.102Z,14.80
2018-03-31T07:33:02.180Z,14.43
2018-03-31T07:36:05.906Z,15.02
2018-03-31T07:39:08.771Z,13.10
2018-03-31T07:42:12.606Z,15.63
2018-03-31T07:45:15.502Z,13.60
2018-03-31T07:48:19.299Z,15.18
2018-03-31T07:51:23.054Z,14.32
2018-03-31T07:54:25.846Z,15.02
2018-03-31T07:57:29.150Z,15.68
2018-03-31T08:00:32.011Z,15.77
2018-03-31T08:03:34.812Z,14.98
2018-03-31T08:06:37.661Z,14.48
2018-03-31T08:09:41.744Z,15.43
2018-03-31T08:12:44.726Z,14.38
2018-03-31T08:15:47.928Z,14.45
2018-03-31T08:18:50.898Z,13.07
2018-03-31T08:21:53.798Z,14.30
2018-03-31T08:24:56.667Z,13.93
2018-03-31T08:27:59.496Z,13.85
2018-03-31T08:31:02.589Z,12.55
2018-03-31T08:34:05.567Z,13.73
2018-03-31T08:37:08.358Z,11.60
2018-03-31T08:40:11.140Z,12.32
2018-03-31T08:43:14.164Z,11.30
2018-03-31T08:46:17.067Z,10.93
2018-03-31T08:49:20.001Z,11.10
2018-03-31T08:52:22.808Z,10.43
2018-03-31T08:55:26.437Z,10.32
2018-03-31T08:58:29.398Z,10.75
2018-03-31T09:01:32.250Z,11.88
2018-03-31T09:04:35.058Z,11.20
2018-03-31T09:07:37.997Z,10.32
2018-03-31T09:10:41.707Z,10.57
2018-03-31T09:13:44.562Z,11.60
2018-03-31T09:16:47.809Z,10.88
2018-03-31T09:19:50.699Z,10.80
2018-03-31T09:22:53.528Z,11.70
2018-03-31T09:25:57.199Z,12.10
2018-03-31T09:29:00.083Z,9.35
2018-03-31T09:32:03.794Z,10.18
2018-03-31T09:35:07.503Z,10.65
2018-03-31T09:38:10.312Z,9.70
2018-03-31T09:41:13.248Z,11.07
2018-03-31T09:44:16.131Z,10.75
2018-03-31T09:47:19.096Z,10.50
2018-03-31T09:50:22.848Z,10.75
2018-03-31T09:53:30.647Z,11.65
2018-03-31T09:56:45.650Z,10.25
2018-03-31T09:59:53.085Z,10.20
2018-03-31T10:02:56.854Z,12.50
2018-03-31T10:06:00.537Z,10.05
2018-03-31T10:09:08.211Z,11.25
2018-03-31T10:15:25.657Z,10.95
2018-03-31T10:18:57.078Z,12.10
2018-03-31T10:27:42.186Z,16.95
2018-03-31T10:30:46.392Z,13.27
2018-03-31T10:33:49.346Z,11.27
2018-03-31T10:36:53.969Z,12.35
2018-03-31T10:40:00.314Z,11.90
2018-03-31T10:43:04.038Z,11.17
2018-03-31T10:46:06.934Z,12.00
2018-03-31T10:49:09.775Z,11.82
2018-03-31T10:52:16.108Z,10.57
2018-03-31T10:55:23.615Z,11.83
2018-03-31T10:58:26.486Z,11.63
2018-03-31T11:01:38.391Z,11.80
2018-03-31T11:04:41.253Z,11.30
2018-03-31T11:07:44.049Z,10.80
2018-03-31T11:10:46.953Z,10.47
2018-03-31T11:13:50.559Z,11.03
2018-03-31T11:16:53.401Z,11.68
2018-03-31T11:19:56.259Z,12.80
2018-03-31T11:22:59.127Z,11.23
2018-03-31T11:26:02.923Z,11.40
2018-03-31T11:29:05.766Z,11.82
2018-03-31T11:32:08.545Z,12.43
2018-03-31T11:35:11.359Z,11.63
2018-03-31T11:38:14.287Z,12.50
2018-03-31T11:41:17.207Z,13.38
2018-03-31T11:44:20.093Z,13.18
2018-03-31T11:47:23.077Z,13.82
2018-03-31T11:50:26.023Z,12.70
2018-03-31T11:53:28.912Z,14.77
2018-03-31T11:56:31.709Z,13.95
2018-03-31T11:59:34.624Z,13.67
2018-03-31T12:02:37.807Z,15.00
2018-03-31T12:05:40.714Z,14.77
2018-03-31T12:08:43.710Z,15.33
2018-03-31T12:11:46.648Z,15.43
2018-03-31T12:14:49.632Z,15.70
2018-03-31T12:17:52.493Z,15.80
2018-03-31T12:20:55.306Z,13.87
2018-03-31T12:23:58.140Z,14.43
2018-03-31T12:27:00.957Z,14.67
2018-03-31T12:30:03.902Z,14.87
2018-03-31T12:33:07.244Z,12.90
2018-03-31T12:36:10.062Z,12.80
2018-03-31T12:39:12.864Z,13.17
2018-03-31T12:42:16.532Z,12.40
2018-03-31T12:45:19.519Z,11.63
2018-03-31T12:48:23.164Z,14.53
2018-03-31T12:51:26.076Z,13.20
2018-03-31T12:54:29.003Z,15.03
2018-03-31T12:57:31.897Z,15.57
2018-03-31T13:00:34.791Z,13.97
2018-03-31T13:03:37.634Z,14.73
2018-03-31T13:06:40.529Z,13.67
2018-03-31T13:09:43.810Z,14.60
2018-03-31T13:12:46.648Z,14.30
2018-03-31T13:15:49.588Z,14.05
2018-03-31T13:18:52.640Z,11.97
2018-03-31T13:21:55.742Z,10.30
2018-03-31T13:24:58.668Z,8.68
2018-03-31T13:28:01.593Z,8.27
2018-03-31T13:31:05.254Z,7.72
2018-03-31T13:34:08.099Z,7.73
2018-03-31T13:37:10.961Z,7.23
2018-03-31T13:40:13.749Z,7.77
2018-03-31T13:46:26.791Z,7.77
2018-03-31T13:49:29.780Z,9.00
2018-03-31T13:52:32.971Z,8.37
2018-03-31T13:55:35.935Z,9.20
2018-03-31T13:58:39.171Z,9.13
2018-03-31T14:01:44.316Z,8.63
2018-03-31T14:13:05.540Z,9.50
2018-03-31T14:16:10.658Z,11.80
2018-03-31T14:19:16.479Z,11.33
2018-03-31T14:22:19.283Z,10.80
2018-03-31T14:25:22.111Z,10.23
2018-03-31T14:28:25.054Z,10.43
2018-03-31T14:31:28.628Z,9.83
2018-03-31T14:34:31.517Z,10.47
2018-03-31T14:37:34.406Z,11.57
2018-03-31T14:40:38.064Z,10.93
2018-03-31T14:43:40.914Z,11.43
2018-03-31T14:46:43.794Z,11.50
2018-03-31T14:49:47.432Z,10.50
2018-03-31T14:52:50.320Z,10.93
2018-03-31T14:55:53.188Z,11.67
2018-03-31T14:58:56.902Z,11.17
2018-03-31T15:01:59.791Z,10.63
2018-03-31T15:05:02.671Z,9.10
2018-03-31T15:08:05.682Z,11.63
2018-03-31T15:11:08.552Z,10.33
2018-03-31T15:14:11.448Z,9.60
2018-03-31T15:17:14.400Z,10.90
2018-03-31T15:20:18.068Z,10.67
2018-03-31T15:23:20.921Z,11.40
2018-03-31T15:26:23.934Z,10.60
2018-03-31T15:29:27.196Z,10.07
2018-03-31T15:32:30.211Z,9.83
2018-03-31T15:35:33.217Z,10.73
2018-03-31T15:38:36.078Z,9.60
2018-03-31T15:41:39.817Z,11.30
2018-03-31T15:44:42.691Z,11.00
2018-03-31T15:47:45.621Z,9.70
2018-03-31T15:50:49.414Z,10.37
2018-03-31T15:53:52.283Z,10.07
2018-03-31T15:56:55.254Z,9.00
2018-03-31T15:59:58.524Z,10.47
2018-03-31T16:03:01.546Z,11.10
2018-03-31T16:06:04.402Z,9.97
2018-03-31T16:09:07.346Z,10.40
2018-03-31T16:12:11.117Z,10.70
2018-03-31T16:15:13.926Z,10.40
2018-03-31T16:18:16.810Z,10.13
2018-03-31T16:21:19.658Z,9.30
2018-03-31T16:24:22.622Z,9.47
2018-03-31T16:27:25.546Z,9.23
2018-03-31T16:30:29.261Z,10.37
2018-03-31T16:33:32.252Z,10.03
2018-03-31T16:36:35.050Z,11.00
2018-03-31T16:39:37.953Z,10.73
2018-03-31T16:42:40.791Z,10.03
2018-03-31T16:45:43.634Z,9.90
2018-03-31T16:48:46.481Z,10.70
2018-03-31T16:51:49.355Z,10.00
2018-03-31T16:54:52.137Z,10.02
2018-03-31T16:57:54.997Z,11.23
2018-03-31T17:00:57.818Z,11.10
2018-03-31T17:04:00.740Z,11.73
2018-03-31T17:07:03.524Z,11.38
2018-03-31T17:10:06.384Z,11.25
2018-03-31T17:13:09.384Z,11.27
2018-03-31T17:16:12.248Z,11.20
2018-03-31T17:19:15.097Z,12.15
2018-03-31T17:22:18.775Z,10.85
2018-03-31T17:25:21.561Z,13.38
2018-03-31T17:28:24.410Z,12.98
2018-03-31T17:31:28.083Z,14.15
2018-03-31T17:34:30.967Z,13.65
2018-03-31T17:37:33.773Z,12.57
2018-03-31T17:40:37.463Z,11.50
2018-03-31T17:43:40.349Z,11.55
2018-03-31T17:46:43.373Z,12.93
2018-03-31T17:49:46.195Z,12.18
2018-03-31T17:52:49.151Z,11.98
2018-03-31T17:55:52.042Z,12.65
2018-03-31T17:58:54.962Z,15.25
2018-03-31T18:01:57.823Z,13.25
2018-03-31T18:08:09.846Z,14.32
2018-03-31T18:11:12.724Z,13.75
2018-03-31T18:14:15.536Z,12.88
2018-03-31T18:17:18.349Z,13.60
2018-03-31T18:20:21.183Z,13.80
2018-03-31T18:23:24.046Z,13.45
2018-03-31T18:26:27.689Z,12.63
2018-03-31T18:29:30.576Z,14.38
2018-03-31T18:32:33.410Z,13.77
2018-03-31T18:35:36.247Z,12.73
2018-03-31T18:38:39.103Z,13.57
2018-03-31T18:41:42.759Z,14.15
2018-03-31T18:44:46.509Z,14.40
2018-03-31T18:47:49.477Z,15.63
2018-03-31T18:50:52.427Z,15.93
2018-03-31T18:53:55.334Z,16.37
2018-03-31T18:56:58.189Z,16.83
2018-03-31T19:00:01.334Z,15.23
2018-03-31T19:03:04.266Z,16.70
2018-03-31T19:06:07.201Z,18.50
2018-03-31T19:09:10.972Z,22.33
2018-03-31T19:12:13.981Z,17.90
2018-03-31T19:15:16.950Z,16.00
2018-03-31T19:18:19.987Z,17.17
2018-03-31T19:21:23.047Z,13.70
2018-03-31T19:24:26.020Z,15.02
2018-03-31T19:27:29.081Z,14.18
2018-03-31T19:30:37.804Z,15.95
2018-03-31T19:33:40.796Z,15.55
2018-03-31T19:36:44.018Z,17.58
2018-03-31T19:39:51.141Z,17.73
2018-03-31T19:42:54.014Z,15.77
2018-03-31T19:45:56.803Z,14.52
2018-03-31T19:48:59.747Z,15.65
2018-03-31T19:52:02.662Z,18.65
2018-03-31T19:55:05.549Z,19.15
2018-03-31T19:58:08.480Z,15.10
2018-03-31T20:01:11.475Z,14.68
2018-03-31T20:04:14.292Z,17.02
2018-03-31T20:07:17.341Z,16.00
2018-03-31T20:10:20.305Z,15.07
2018-03-31T20:13:23.971Z,14.95
2018-03-31T20:16:26.854Z,14.52
2018-03-31T20:19:29.750Z,14.68
2018-03-31T20:22:32.625Z,15.23
2018-03-31T20:25:35.549Z,17.60
2018-03-31T20:28:38.483Z,13.95
2018-03-31T20:31:42.294Z,15.50
2018-03-31T20:34:45.966Z,26.75
2018-03-31T20:37:49.168Z,13.73
2018-03-31T20:40:52.082Z,15.10
2018-03-31T20:43:54.984Z,16.08
2018-03-31T20:46:58.685Z,16.62
2018-03-31T20:50:01.554Z,16.75
2018-03-31T20:53:05.339Z,16.23
2018-03-31T20:56:08.165Z,16.37
2018-03-31T20:59:11.039Z,17.52
2018-03-31T21:02:13.963Z,17.27
2018-03-31T21:05:16.803Z,15.43
2018-03-31T21:08:20.382Z,19.62
2018-03-31T21:11:23.381Z,20.00
2018-03-31T21:14:26.310Z,18.87
2018-03-31T21:17:29.180Z,20.02
2018-03-31T21:20:32.090Z,19.37
2018-03-31T21:23:34.976Z,20.65
2018-03-31T21:26:38.578Z,22.92
2018-03-31T21:29:41.415Z,22.20
2018-03-31T21:32:44.416Z,20.70
2018-03-31T21:35:47.393Z,19.83
2018-03-31T21:38:50.221Z,20.05
2018-03-31T21:41:53.094Z,19.00
2018-03-31T21:44:56.622Z,20.45
2018-03-31T21:48:00.213Z,18.40
2018-03-31T21:51:03.831Z,18.95
2018-03-31T21:54:06.712Z,19.55
2018-03-31T21:57:09.638Z,19.42
2018-03-31T22:00:12.564Z,19.95
2018-03-31T22:03:15.467Z,18.52
2018-03-31T22:06:18.266Z,22.52
2018-03-31T22:09:21.108Z,21.95
2018-03-31T22:12:23.934Z,20.62
2018-03-31T22:15:32.461Z,19.80
2018-03-31T22:18:35.255Z,19.75
2018-03-31T22:21:38.076Z,20.88
2018-03-31T22:24:40.882Z,21.80
2018-03-31T22:27:43.834Z,21.85
2018-03-31T22:33:55.844Z,22.60
2018-03-31T22:36:58.712Z,22.73
2018-03-31T22:40:01.572Z,21.70
2018-03-31T22:43:04.377Z,23.45
2018-03-31T22:46:07.233Z,24.58
2018-03-31T22:49:10.048Z,23.87
2018-03-31T22:52:12.924Z,22.23
2018-03-31T22:55:16.556Z,20.45
2018-03-31T22:58:19.431Z,23.38
2018-03-31T23:01:22.329Z,24.58
2018-03-31T23:04:25.934Z,26.12
2018-03-31T23:07:28.864Z,25.98
2018-03-31T23:10:31.795Z,24.40
2018-03-31T23:13:34.606Z,23.52
2018-03-31T23:16:37.455Z,23.77
2018-03-31T23:19:40.269Z,22.67
2018-03-31T23:22:43.848Z,22.30
2018-03-31T23:25:46.621Z,23.55
2018-03-31T23:28:49.425Z,23.17
2018-03-31T23:31:52.994Z,27.60
2018-03-31T23:34:55.786Z,28.20
2018-03-31T23:37:58.655Z,29.45
2018-03-31T23:41:01.481Z,28.17
2018-03-31T23:44:04.973Z,23.58
2018-03-31T23:47:07.930Z,25.90
2018-03-31T23:50:10.809Z,22.52
2018-03-31T23:53:14.435Z,24.58
2018-03-31T23:56:18.006Z,22.92
2018-03-31T23:59:20.908Z,23.27
